createdAt,value
2018-11-14T00:02:34.448Z,85.46
2018-11-14T00:05:40.106Z,85.98
2018-11-14T00:08:45.581Z,86.22
2018-11-14T00:11:51.010Z,86.40
2018-11-14T00:14:57.441Z,86.24
2018-11-14T00:18:02.904Z,86.08
2018-11-14T00:21:08.400Z,86.16
2018-11-14T00:24:14.153Z,85.97
2018-11-14T00:27:19.570Z,86.25
2018-11-14T00:30:26.006Z,86.43
2018-11-14T00:33:31.451Z,85.93
2018-11-14T00:36:36.838Z,85.91
2018-11-14T00:39:42.316Z,86.34
2018-11-14T00:42:48.466Z,86.89
2018-11-14T00:45:53.935Z,86.37
2018-11-14T00:48:59.409Z,86.42
2018-11-14T00:52:05.502Z,86.29
2018-11-14T00:55:13.987Z,86.28
2018-11-14T00:58:19.353Z,87.00
2018-11-14T01:01:24.944Z,87.32
2018-11-14T01:04:30.838Z,87.07
2018-11-14T01:07:36.334Z,87.06
2018-11-14T01:10:41.745Z,86.82
2018-11-14T01:13:47.289Z,87.07
2018-11-14T01:16:52.715Z,87.01
2018-11-14T01:19:58.163Z,87.39
2018-11-14T01:23:03.712Z,87.71
2018-11-14T01:26:09.772Z,87.56
2018-11-14T01:29:15.138Z,88.13
2018-11-14T01:32:20.591Z,88.19
2018-11-14T01:35:26.172Z,87.75
2018-11-14T01:38:31.607Z,87.68
2018-11-14T01:41:37.158Z,87.68
2018-11-14T01:44:42.622Z,87.64
2018-11-14T01:47:48.049Z,87.51
2018-11-14T01:50:53.475Z,87.71
2018-11-14T01:53:58.966Z,88.02
2018-11-14T01:57:04.410Z,87.33
2018-11-14T02:00:13.044Z,87.43
2018-11-14T02:03:18.462Z,87.25
2018-11-14T02:06:24.174Z,87.48
2018-11-14T02:09:29.622Z,87.85
2018-11-14T02:12:35.411Z,87.78
2018-11-14T02:15:40.922Z,87.83
2018-11-14T02:18:46.305Z,87.51
2018-11-14T02:21:51.677Z,87.82
2018-11-14T02:24:57.218Z,88.22
2018-11-14T02:28:02.649Z,87.99
2018-11-14T02:31:08.398Z,88.39
2018-11-14T02:34:13.878Z,88.29
2018-11-14T02:37:19.482Z,88.27
2018-11-14T02:40:24.945Z,87.99
2018-11-14T02:43:30.458Z,88.69
2018-11-14T02:46:35.813Z,89.00
2018-11-14T02:49:41.228Z,88.79
2018-11-14T02:52:46.721Z,88.51
2018-11-14T02:56:06.210Z,89.12
2018-11-14T02:59:11.566Z,89.16
2018-11-14T03:02:17.095Z,89.98
2018-11-14T03:05:22.625Z,89.87
2018-11-14T03:08:28.110Z,89.60
2018-11-14T03:11:33.495Z,89.72
2018-11-14T03:14:38.924Z,89.66
2018-11-14T03:17:44.373Z,89.78
2018-11-14T03:20:49.819Z,90.08
2018-11-14T03:23:55.396Z,89.55
2018-11-14T03:27:00.826Z,89.94
2018-11-14T03:30:08.929Z,90.42
2018-11-14T03:33:14.631Z,90.34
2018-11-14T03:36:20.997Z,90.39
2018-11-14T03:39:26.673Z,90.29
2018-11-14T03:42:32.062Z,90.20
2018-11-14T03:45:37.526Z,90.51
2018-11-14T03:48:43.102Z,90.35
2018-11-14T03:51:48.554Z,90.16
2018-11-14T03:54:54.011Z,90.53
2018-11-14T03:57:59.438Z,90.42
2018-11-14T04:01:06.091Z,90.39
2018-11-14T04:04:11.625Z,90.60
2018-11-14T04:07:17.070Z,90.39
2018-11-14T04:10:22.545Z,90.41
2018-11-14T04:13:28.117Z,90.26
2018-11-14T04:16:33.613Z,90.40
2018-11-14T04:19:38.998Z,90.28
2018-11-14T04:22:44.670Z,90.43
2018-11-14T04:25:50.115Z,90.09
2018-11-14T04:28:55.619Z,90.02
2018-11-14T04:32:01.201Z,90.16
2018-11-14T04:35:09.418Z,90.00
2018-11-14T04:38:14.835Z,90.28
2018-11-14T04:41:20.260Z,89.39
2018-11-14T04:44:25.734Z,89.52
2018-11-14T04:47:31.304Z,89.90
2018-11-14T04:50:36.690Z,89.66
2018-11-14T04:53:42.118Z,89.74
2018-11-14T04:56:47.542Z,89.44
2018-11-14T04:59:53.350Z,89.76
2018-11-14T05:02:59.327Z,90.10
2018-11-14T05:06:05.405Z,90.00
2018-11-14T05:09:12.779Z,89.74
2018-11-14T05:12:18.214Z,89.85
2018-11-14T05:15:24.834Z,90.26
2018-11-14T05:18:31.977Z,91.34
2018-11-14T05:21:37.431Z,90.19
2018-11-14T05:24:42.914Z,90.47
2018-11-14T05:27:48.808Z,90.07
2018-11-14T05:30:54.186Z,90.22
2018-11-14T05:33:59.689Z,90.63
2018-11-14T05:37:05.133Z,89.84
2018-11-14T05:40:13.935Z,90.25
2018-11-14T05:43:19.601Z,90.31
2018-11-14T05:46:24.984Z,90.00
2018-11-14T05:49:30.419Z,89.80
2018-11-14T05:52:35.842Z,90.44
2018-11-14T05:55:41.290Z,90.35
2018-11-14T05:58:46.650Z,90.62
2018-11-14T06:01:52.130Z,90.63
2018-11-14T06:04:57.592Z,90.75
2018-11-14T06:08:03.011Z,90.13
2018-11-14T06:11:08.426Z,90.79
2018-11-14T06:14:13.926Z,90.49
2018-11-14T06:17:19.305Z,90.54
2018-11-14T06:20:24.763Z,90.31
2018-11-14T06:23:30.739Z,90.07
2018-11-14T06:26:36.277Z,90.35
2018-11-14T06:29:41.741Z,90.04
2018-11-14T06:32:47.482Z,89.41
2018-11-14T06:35:52.858Z,89.64
2018-11-14T06:38:58.329Z,89.62
2018-11-14T06:42:03.800Z,89.63
2018-11-14T06:45:13.162Z,89.50
2018-11-14T06:48:18.530Z,89.54
2018-11-14T06:51:23.954Z,89.79
2018-11-14T06:54:29.385Z,89.55
2018-11-14T06:57:34.849Z,89.05
2018-11-14T07:00:40.217Z,89.02
2018-11-14T07:03:45.702Z,89.15
2018-11-14T07:06:51.081Z,89.51
2018-11-14T07:09:56.490Z,89.21
2018-11-14T07:13:05.788Z,89.36
2018-11-14T07:16:11.206Z,89.69
2018-11-14T07:19:16.593Z,89.33
2018-11-14T07:22:21.982Z,89.49
2018-11-14T07:25:27.849Z,89.65
2018-11-14T07:28:33.320Z,89.06
2018-11-14T07:31:38.759Z,88.02
2018-11-14T07:34:44.214Z,87.76
2018-11-14T07:38:53.281Z,88.01
2018-11-14T07:41:58.721Z,87.85
2018-11-14T07:45:04.204Z,87.35
2018-11-14T07:48:11.903Z,87.92
2018-11-14T07:51:17.509Z,87.41
2018-11-14T07:54:23.100Z,87.77
2018-11-14T07:57:28.694Z,87.51
2018-11-14T08:00:34.159Z,87.73
2018-11-14T08:03:39.656Z,87.42
2018-11-14T08:06:45.104Z,87.58
2018-11-14T08:09:51.081Z,87.75
2018-11-14T08:12:56.771Z,87.62
2018-11-14T08:16:02.899Z,87.42
2018-11-14T08:19:08.461Z,87.50
2018-11-14T08:22:14.043Z,87.73
2018-11-14T08:25:19.783Z,88.01
2018-11-14T08:28:25.746Z,87.95
2018-11-14T08:31:31.211Z,87.21
2018-11-14T08:34:36.675Z,87.29
2018-11-14T08:37:42.365Z,87.31
2018-11-14T08:40:48.255Z,87.95
2018-11-14T08:43:53.869Z,87.26
2018-11-14T08:46:59.371Z,86.90
2018-11-14T08:50:06.431Z,86.72
2018-11-14T08:53:13.806Z,86.58
2018-11-14T08:56:19.289Z,86.49
2018-11-14T08:59:24.811Z,85.95
2018-11-14T09:02:30.249Z,85.85
2018-11-14T09:05:35.719Z,86.35
2018-11-14T09:08:41.362Z,86.24
2018-11-14T09:11:47.112Z,86.44
2018-11-14T09:14:52.773Z,86.14
2018-11-14T09:17:58.465Z,86.24
2018-11-14T09:21:04.047Z,85.34
2018-11-14T09:24:09.523Z,85.54
2018-11-14T09:27:15.135Z,85.46
2018-11-14T09:30:22.778Z,86.14
2018-11-14T09:33:28.268Z,85.58
2018-11-14T09:36:33.747Z,85.36
2018-11-14T09:39:39.222Z,85.87
2018-11-14T09:42:44.730Z,85.02
2018-11-14T09:45:50.123Z,84.80
2018-11-14T09:48:55.552Z,84.76
2018-11-14T09:52:00.962Z,83.78
2018-11-14T09:55:08.543Z,84.96
2018-11-14T09:58:13.999Z,85.17
2018-11-14T10:01:19.398Z,84.43
2018-11-14T10:04:24.859Z,83.86
2018-11-14T10:07:30.333Z,82.73
2018-11-14T10:10:35.746Z,83.85
2018-11-14T10:13:41.202Z,83.09
2018-11-14T10:16:46.649Z,83.51
2018-11-14T10:19:52.047Z,83.56
2018-11-14T10:22:57.518Z,83.63
2018-11-14T10:26:02.970Z,83.46
2018-11-14T10:29:08.543Z,83.00
2018-11-14T10:32:14.045Z,81.89
2018-11-14T10:35:19.604Z,82.53
2018-11-14T10:38:25.071Z,82.24
2018-11-14T10:41:30.466Z,81.72
2018-11-14T10:44:35.935Z,82.17
2018-11-14T10:47:41.443Z,81.06
2018-11-14T10:50:46.948Z,80.76
2018-11-14T10:53:52.589Z,81.02
2018-11-14T10:56:58.411Z,80.72
2018-11-14T11:00:04.164Z,81.43
2018-11-14T11:03:14.719Z,81.82
2018-11-14T11:06:34.031Z,83.29
2018-11-14T11:09:44.499Z,82.95
2018-11-14T11:14:55.839Z,82.61
2018-11-14T11:18:03.037Z,82.51
2018-11-14T11:21:08.408Z,84.02
2018-11-14T11:24:14.661Z,83.48
2018-11-14T11:27:20.058Z,83.36
2018-11-14T11:30:25.442Z,82.82
2018-11-14T11:33:30.843Z,83.08
2018-11-14T11:36:36.278Z,83.50
2018-11-14T11:39:41.650Z,83.08
2018-11-14T11:42:47.051Z,84.04
2018-11-14T11:45:52.430Z,83.11
2018-11-14T11:48:57.838Z,83.91
2018-11-14T11:52:03.546Z,84.17
2018-11-14T11:55:08.995Z,84.34
2018-11-14T11:58:14.363Z,84.02
2018-11-14T12:01:19.746Z,83.90
2018-11-14T12:04:25.154Z,83.50
2018-11-14T12:07:30.498Z,83.60
2018-11-14T12:10:35.924Z,83.22
2018-11-14T12:13:41.585Z,83.11
2018-11-14T12:16:47.142Z,82.89
2018-11-14T12:19:52.527Z,82.67
2018-11-14T12:22:58.140Z,82.75
2018-11-14T12:26:03.525Z,82.84
2018-11-14T12:29:08.882Z,83.73
2018-11-14T12:32:14.278Z,82.99
2018-11-14T12:35:19.739Z,82.82
2018-11-14T12:38:25.309Z,83.02
2018-11-14T12:41:30.713Z,83.58
2018-11-14T12:44:36.077Z,83.81
2018-11-14T12:47:41.591Z,83.19
2018-11-14T12:50:46.973Z,83.55
2018-11-14T12:53:52.341Z,82.58
2018-11-14T12:56:57.726Z,82.94
2018-11-14T13:00:03.269Z,83.12
2018-11-14T13:03:08.829Z,82.77
2018-11-14T13:06:14.214Z,82.00
2018-11-14T13:09:19.573Z,82.38
2018-11-14T13:12:24.965Z,82.31
2018-11-14T13:15:30.333Z,82.18
2018-11-14T13:18:35.722Z,82.36
2018-11-14T13:21:44.604Z,82.18
2018-11-14T13:24:49.962Z,82.62
2018-11-14T13:27:55.742Z,82.30
2018-11-14T13:31:01.302Z,82.47
2018-11-14T13:34:07.098Z,82.46
2018-11-14T13:37:12.520Z,82.19
2018-11-14T13:40:17.930Z,82.79
2018-11-14T13:43:24.229Z,82.96
2018-11-14T13:46:29.616Z,82.96
2018-11-14T13:49:35.186Z,82.91
2018-11-14T13:52:40.775Z,82.65
2018-11-14T13:55:46.141Z,83.17
2018-11-14T13:58:51.506Z,83.97
2018-11-14T14:01:56.926Z,83.37
2018-11-14T14:05:02.435Z,83.84
2018-11-14T14:08:07.936Z,83.98
2018-11-14T14:11:13.470Z,84.43
2018-11-14T14:14:19.488Z,83.27
2018-11-14T14:17:24.942Z,84.48
2018-11-14T14:20:32.317Z,84.12
2018-11-14T14:23:42.626Z,83.58
2018-11-14T14:26:50.192Z,82.79
2018-11-14T14:29:55.597Z,82.78
2018-11-14T14:33:01.130Z,83.33
2018-11-14T14:36:07.442Z,83.52
2018-11-14T14:39:13.566Z,82.99
2018-11-14T14:42:18.963Z,82.97
2018-11-14T14:45:25.950Z,83.50
2018-11-14T14:48:31.434Z,83.35
2018-11-14T14:51:37.002Z,84.18
2018-11-14T14:54:42.427Z,83.74
2018-11-14T14:57:48.145Z,84.15
2018-11-14T15:00:53.995Z,83.93
2018-11-14T15:03:59.499Z,83.82
2018-11-14T15:07:05.934Z,83.96
2018-11-14T15:10:15.210Z,84.34
2018-11-14T15:13:20.585Z,84.33
2018-11-14T15:16:25.982Z,84.23
2018-11-14T15:19:31.346Z,84.62
2018-11-14T15:22:37.139Z,84.35
2018-11-14T15:25:42.678Z,84.62
2018-11-14T15:28:48.064Z,84.94
2018-11-14T15:31:53.651Z,84.71
2018-11-14T15:34:59.428Z,84.60
2018-11-14T15:38:05.448Z,84.89
2018-11-14T15:41:10.846Z,84.80
2018-11-14T15:44:16.604Z,84.16
2018-11-14T15:47:21.959Z,84.73
2018-11-14T15:50:28.949Z,84.20
2018-11-14T15:53:34.666Z,83.61
2018-11-14T15:56:40.044Z,83.49
2018-11-14T15:59:45.410Z,83.61
2018-11-14T16:02:50.842Z,83.35
2018-11-14T16:05:56.454Z,83.96
2018-11-14T16:09:01.841Z,83.89
2018-11-14T16:12:07.606Z,84.52
2018-11-14T16:15:14.151Z,84.75
2018-11-14T16:18:19.514Z,85.12
2018-11-14T16:21:24.918Z,84.52
2018-11-14T16:24:30.338Z,84.76
2018-11-14T16:27:35.918Z,84.07
2018-11-14T16:30:41.284Z,84.24
2018-11-14T16:33:46.678Z,83.58
2018-11-14T16:36:52.054Z,83.90
2018-11-14T16:39:57.445Z,84.38
2018-11-14T16:43:04.324Z,84.31
2018-11-14T16:46:09.738Z,85.42
2018-11-14T16:49:15.314Z,84.93
2018-11-14T16:52:20.709Z,85.08
2018-11-14T16:55:26.204Z,84.59
2018-11-14T16:58:31.797Z,84.79
2018-11-14T17:01:37.222Z,84.60
2018-11-14T17:04:42.657Z,85.14
2018-11-14T17:07:48.162Z,84.90
2018-11-14T17:10:53.598Z,85.11
2018-11-14T17:13:58.994Z,84.52
2018-11-14T17:17:04.438Z,84.33
2018-11-14T17:20:10.816Z,84.58
2018-11-14T17:23:16.258Z,84.18
2018-11-14T17:26:21.736Z,84.06
2018-11-14T17:29:27.253Z,84.26
2018-11-14T17:32:32.650Z,84.30
2018-11-14T17:35:38.046Z,84.25
2018-11-14T17:38:43.447Z,84.48
2018-11-14T17:41:48.946Z,83.78
2018-11-14T17:44:54.441Z,83.75
2018-11-14T17:48:00.147Z,84.51
2018-11-14T17:51:05.771Z,83.94
2018-11-14T17:54:11.191Z,83.80
2018-11-14T17:57:16.602Z,83.84
2018-11-14T18:00:23.417Z,83.86
2018-11-14T18:03:28.863Z,83.76
2018-11-14T18:06:34.243Z,83.43
2018-11-14T18:09:39.831Z,83.79
2018-11-14T18:12:46.477Z,83.84
2018-11-14T18:15:51.842Z,83.83
2018-11-14T18:18:57.201Z,83.44
2018-11-14T18:22:02.627Z,83.07
2018-11-14T18:25:08.399Z,83.46
2018-11-14T18:28:13.774Z,83.73
2018-11-14T18:31:19.245Z,83.95
2018-11-14T18:34:24.614Z,83.81
2018-11-14T18:37:30.051Z,83.54
2018-11-14T18:40:35.873Z,83.81
2018-11-14T18:43:41.272Z,83.46
2018-11-14T18:46:46.670Z,83.33
2018-11-14T18:49:52.102Z,83.20
2018-11-14T18:52:57.542Z,83.05
2018-11-14T18:56:02.895Z,83.04
2018-11-14T18:59:08.390Z,83.60
2018-11-14T19:02:13.807Z,83.69
2018-11-14T19:05:19.734Z,83.82
2018-11-14T19:08:25.144Z,83.77
2018-11-14T19:11:30.545Z,83.69
2018-11-14T19:14:35.945Z,84.26
2018-11-14T19:17:41.841Z,84.46
2018-11-14T19:20:47.226Z,85.12
2018-11-14T19:23:52.658Z,85.53
2018-11-14T19:26:58.069Z,85.45
2018-11-14T19:30:04.006Z,85.89
2018-11-14T19:33:09.520Z,85.93
2018-11-14T19:36:15.220Z,86.21
2018-11-14T19:39:20.845Z,86.31
2018-11-14T19:42:28.199Z,86.36
2018-11-14T19:45:38.391Z,86.33
2018-11-14T19:48:47.909Z,86.24
2018-11-14T19:51:56.574Z,86.10
2018-11-14T19:55:02.239Z,86.17
2018-11-14T19:58:09.421Z,85.91
2018-11-14T20:01:27.167Z,87.23
2018-11-14T20:04:32.889Z,87.50
2018-11-14T20:07:39.062Z,86.77
2018-11-14T20:10:44.564Z,87.15
2018-11-14T20:13:53.335Z,87.19
2018-11-14T20:17:00.937Z,87.18
2018-11-14T20:20:09.316Z,87.17
2018-11-14T20:23:15.003Z,87.14
2018-11-14T20:26:20.813Z,86.92
2018-11-14T20:29:26.693Z,86.64
2018-11-14T20:32:32.090Z,86.83
2018-11-14T20:35:37.906Z,86.48
2018-11-14T20:38:43.463Z,86.42
2018-11-14T20:41:49.085Z,86.94
2018-11-14T20:44:54.815Z,86.65
2018-11-14T20:48:00.498Z,86.96
2018-11-14T20:51:07.250Z,87.54
2018-11-14T20:54:12.842Z,87.44
2018-11-14T20:57:20.346Z,87.44
2018-11-14T21:00:29.909Z,88.33
2018-11-14T21:03:35.823Z,88.64
2018-11-14T21:06:41.351Z,88.40
2018-11-14T21:09:46.982Z,87.78
2018-11-14T21:12:53.444Z,87.94
2018-11-14T21:15:58.938Z,88.18
2018-11-14T21:19:04.629Z,88.26
2018-11-14T21:22:13.889Z,87.82
2018-11-14T21:25:20.422Z,87.68
2018-11-14T21:28:26.181Z,88.25
2018-11-14T21:31:33.463Z,88.03
2018-11-14T21:34:52.258Z,88.32
2018-11-14T21:38:00.139Z,88.40
2018-11-14T21:41:05.651Z,88.71
2018-11-14T21:44:11.423Z,88.35
2018-11-14T21:47:17.062Z,87.97
2018-11-14T21:50:23.721Z,87.94
2018-11-14T21:53:29.394Z,88.31
2018-11-14T21:56:34.953Z,88.82
2018-11-14T21:59:40.470Z,88.04
2018-11-14T22:02:48.706Z,88.37
2018-11-14T22:05:54.404Z,88.41
2018-11-14T22:08:59.927Z,88.68
2018-11-14T22:12:05.535Z,88.58
2018-11-14T22:15:11.959Z,88.17
2018-11-14T22:18:17.573Z,88.13
2018-11-14T22:21:23.047Z,88.24
2018-11-14T22:24:28.850Z,88.54
2018-11-14T22:27:34.997Z,88.93
2018-11-14T22:30:40.703Z,88.82
2018-11-14T22:33:46.268Z,88.53
2018-11-14T22:36:52.300Z,88.41
2018-11-14T22:39:58.019Z,88.60
2018-11-14T22:43:06.791Z,88.40
2018-11-14T22:46:12.463Z,88.33
2018-11-14T22:49:18.121Z,87.99
2018-11-14T22:52:23.768Z,87.96
2018-11-14T22:55:29.618Z,87.58
2018-11-14T22:58:36.191Z,87.61
2018-11-14T23:01:42.092Z,87.67
2018-11-14T23:04:47.886Z,87.11
2018-11-14T23:07:54.409Z,86.80
2018-11-14T23:11:00.108Z,87.19
2018-11-14T23:14:06.326Z,86.94
2018-11-14T23:17:11.764Z,86.96
2018-11-14T23:20:17.793Z,86.80
2018-11-14T23:23:23.538Z,86.69
2018-11-14T23:26:29.846Z,86.45
2018-11-14T23:29:35.900Z,86.36
2018-11-14T23:32:42.957Z,86.28
2018-11-14T23:35:48.628Z,86.43
2018-11-14T23:38:54.466Z,87.19
2018-11-14T23:42:00.084Z,86.88
2018-11-14T23:45:07.583Z,86.73
2018-11-14T23:48:13.055Z,86.31
2018-11-14T23:51:18.567Z,86.73
2018-11-14T23:54:24.378Z,86.96
2018-11-14T23:57:29.900Z,86.74
